Station: Portable Vpha (Delwp)  

  Atmospheric Gas Attenuation - ITU Rec 676-11   ----------------- dB/100km -----------------
Date Time Temp RH % AH g/m3 Dew Point Wind Direction Speed kph Gust kph Barometer mB Rainfall Since 9am 24GHz 47GHz 76GHz 122GHz 134GHz 241GHz
08/05 12:30 14.7 70 8.81 9.3 11 30 1013.1 0 20.0 26.0 40.2 105.5 100.0 344.2
08/05 12:00 15 67 8.59 8.9 7 33 1013.1 0 19.5 25.5 39.2 102.8 96.8 332.9
08/05 11:30 14.8 67 8.49 8.8 4 19 1013.1 0 19.3 25.4 38.9 102.0 95.7 329.2
08/05 11:00 14.5 68 8.46 8.7 7 26 1013.1 0 19.3 25.5 38.9 102.0 95.7 329.1
08/05 10:30 14 70 8.44 8.6 9 33 1013.1 0 19.2 25.6 39.1 102.5 96.0 330.2
08/05 10:00 13.6 70 8.24 8.3 22 50 1013.1 0 18.8 25.4 38.5 100.9 93.9 322.7
08/05 09:30 13.3 73 8.43 8.6 20 57 1013.1 0 19.3 25.8 39.4 103.3 96.8 332.7
08/05 09:00 12.8 74 8.29 8.3 22 52 1013.1 0 19.0 25.7 39.0 102.4 95.5 328.3
08/05 08:30 12.5 75 8.25 8.2 11 30 1013.1 0 18.9 25.7 39.0 102.4 95.4 327.7
08/05 08:00 12.1 76 8.15 8 13 32 1013.1 0 18.7 25.6 38.8 101.8 94.5 324.8
08/05 07:30 12.2 74 7.99 7.7 19 48 1013.1 0 18.4 25.4 38.1 100.0 92.3 316.9
08/05 07:00 12.6 71 7.86 7.5 17 57 1013.1 0 18.1 25.0 37.4 98.1 90.1 309.4
08/05 06:30 12.3 76 8.25 8.2 17 41 1013.1 0 18.9 25.8 39.1 102.6 95.6 328.6
08/05 06:00 12.6 74 8.19 8.1 11 32 1013.1 0 18.8 25.6 38.7 101.6 94.5 324.5
08/05 05:30 12.6 75 8.3 8.3 13 41 1013.1 0 19.0 25.7 39.2 102.8 95.9 329.6
08/05 05:00 12.2 77 8.31 8.3 9 35 1013.1 0 19.0 25.9 39.4 103.4 96.5 331.8
08/05 04:30 12.3 77 8.36 8.4 17 52 1013.1 0 19.1 25.9 39.6 103.8 97.1 333.7
08/05 04:00 12.2 77 8.31 8.3 13 37 1013.1 0 19.0 25.9 39.4 103.4 96.5 331.8
08/05 03:30 12.2 77 8.31 8.3 11 46 1013.1 0 19.0 25.9 39.4 103.4 96.5 331.8
08/05 03:00 11.5 79 8.16 8 4 13 1013.1 0 18.8 25.8 39.2 102.7 95.4 327.7
08/05 02:30 11.8 76 8 7.7 7 33 1013.1 0 18.4 25.5 38.4 100.6 92.9 319.0
08/05 02:00 11.8 76 8 7.7 9 22 1013.1 0 18.4 25.5 38.4 100.6 92.9 319.0
08/05 01:30 11.3 78 7.96 7.6 9 24 1013.1 0 18.3 25.6 38.4 100.8 93.0 319.2
08/05 01:00 11.1 78 7.86 7.4 11 28 1013.1 0 18.1 25.5 38.1 100.0 91.9 315.3
08/05 00:30 10.4 81 7.81 7.3 7 19 1013.1 0 18.1 25.6 38.3 100.3 92.0 315.8
08/05 00:00 11 78 7.81 7.3 13 35 1013.1 0 18.0 25.4 38.0 99.6 91.3 313.4
07/05 23:30 10.9 77 7.66 7 13 41 1013.1 0 17.7 25.2 37.4 98.1 89.5 306.8
07/05 23:00 10.7 78 7.66 7 17 41 1013.1 0 17.7 25.3 37.5 98.3 89.7 307.6
07/05 22:30 10.8 76 7.51 6.8 17 37 1013.1 0 17.4 25.0 36.9 96.6 87.6 300.2
07/05 22:00 10.5 77 7.47 6.6 11 43 1013.1 0 17.3 25.0 36.8 96.5 87.4 299.5
07/05 21:30 10.4 76 7.33 6.4 17 39 1013.1 0 17.0 24.8 36.3 95.1 85.7 293.4
07/05 21:00 10.4 75 7.23 6.2 13 37 1013.1 0 16.8 24.6 35.9 94.1 84.3 288.8
07/05 20:30 10.3 73 6.99 5.7 7 35 1013.1 0 16.3 24.3 35.0 91.7 81.3 278.1
07/05 20:00 10.5 70 6.79 5.3 7 33 1013.1 0 15.9 23.9 34.1 89.3 78.5 268.4
07/05 19:30 10.7 66 6.48 4.6 11 32 1013.1 0 15.2 23.4 32.9 85.9 74.3 253.8
07/05 19:00 11 64 6.41 4.4 11 37 1013.1 0 15.0 23.2 32.5 84.8 73.2 249.7
07/05 18:30 10.7 65 6.39 4.4 7 20 1013.1 0 15.0 23.2 32.5 85.0 73.2 249.8
07/05 18:00 10.8 65 6.43 4.5 9 30 1013.1 0 15.1 23.3 32.6 85.3 73.6 251.3
07/05 17:30 10.8 66 6.52 4.7 11 30 1013.1 0 15.3 23.4 33.0 86.2 74.8 255.3
07/05 17:00 11.3 63 6.43 4.5 9 26 1013.1 0 15.1 23.1 32.4 84.7 73.1 249.7
07/05 16:30 11.1 66 6.65 5 15 41 1013.1 0 15.5 23.5 33.4 87.2 76.1 260.1
07/05 16:00 11.8 61 6.42 4.5 9 26 1013.1 0 15.0 23.0 32.2 84.1 72.6 247.7
07/05 15:30 11.8 61 6.42 4.5 13 43 1013.1 0 15.0 23.0 32.2 84.1 72.6 247.7
07/05 15:00 12.4 58 6.34 4.4 15 46 1013.1 0 14.8 22.7 31.6 82.7 71.0 242.4
07/05 14:30 12.2 61 6.58 4.9 13 28 1013.1 0 15.3 23.1 32.6 85.3 74.2 253.4
07/05 14:00 12.7 57 6.35 4.4 9 28 1013.1 0 14.8 22.7 31.6 82.5 70.9 241.9
07/05 13:00 11.8 60 6.32 4.3 9 22 1013.1 0 14.8 22.8 31.8 83.1 71.3 243.3
07/05 12:30 11 65 6.51 4.7 7 28 1013.1 0 15.2 23.3 32.9 85.9 74.4 254.2
07/05 12:00 10.4 67 6.46 4.6 15 41 1013.1 0 15.2 23.4 32.9 86.0 74.4 253.9
07/05 11:30 10.4 64 6.17 3.9 11 30 1013.1 0 14.5 23.0 31.8 83.0 70.7 241.0
07/05 11:00 10 66 6.2 3.9 13 33 1013.1 0 14.6 23.1 32.1 83.8 71.4 243.5
07/05 10:30 10.3 63 6.03 3.6 11 30 1013.1 0 14.2 22.8 31.3 81.7 69.0 235.1
07/05 10:00 9.7 63 5.81 3 7 22 1013.1 0 13.8 22.6 30.7 80.1 66.8 227.2
07/05 09:30 8.3 68 5.73 2.8 13 32 1013.1 0 13.7 22.8 30.9 80.7 67.0 227.6
07/05 09:00 8.3 67 5.65 2.6 13 35 1013.1 0 13.5 22.7 30.6 79.9 66.0 224.1
07/05 08:30 7.9 65 5.34 1.8 9 24 1013.1 5.2 12.9 22.3 29.6 77.1 62.4 211.4
07/05 08:00 7.6 65 5.24 1.4 13 41 1013.1 5.2 12.7 22.2 29.3 76.4 61.4 207.8
07/05 07:30 7 66 5.12 1.1 11 32 1013.1 5.2 12.4 22.2 29.1 75.7 60.3 204.0
07/05 07:00 6.8 66 5.05 0.9 13 43 1013.1 5.2 12.3 22.1 28.9 75.2 59.6 201.4
07/05 06:30 6.9 65 5.01 0.8 13 48 1013.1 5.2 12.2 22.1 28.7 74.7 59.0 199.4
07/05 06:00 6.5 67 5.03 0.8 11 57 1013.1 5.2 12.2 22.2 28.9 75.3 59.6 201.3
07/05 05:30 6.3 67 4.96 0.6 11 32 1013.1 5.2 12.1 22.1 28.7 74.7 58.8 198.7
07/05 05:00 6.6 66 4.99 0.7 15 43 1013.1 5.2 12.2 22.1 28.7 74.8 59.0 199.3
07/05 04:30 5.9 69 4.98 0.6 13 39 1013.1 5.2 12.2 22.3 28.9 75.3 59.4 200.6
07/05 04:00 5.6 70 4.95 0.6 20 63 1013.1 5.2 12.1 22.3 28.9 75.3 59.2 200.0
07/05 03:30 5.2 74 5.1 0.9 13 33 1013.1 4.8 12.4 22.6 29.6 77.3 61.4 207.8
07/05 03:00 6.3 66 4.89 0.4 15 35 1013.1 4.4 11.9 22.0 28.4 74.0 57.9 195.6
07/05 02:30 6.5 65 4.88 0.4 19 72 1013.1 4.4 11.9 22.0 28.3 73.7 57.7 194.7
07/05 02:00 6.3 69 5.11 1.1 15 50 1013.1 4.4 12.4 22.4 29.3 76.3 60.7 205.4
07/05 01:30 5.9 73 5.27 1.4 20 63 1013.1 4.4 12.8 22.7 30.1 78.3 63.1 213.6
07/05 01:00 7.2 64 5.03 0.9 22 56 1013.1 3.8 12.2 22.0 28.7 74.6 59.0 199.6
07/05 00:30 7.6 63 5.08 1 22 54 1013.1 3.8 12.3 22.0 28.7 74.7 59.3 200.7
07/05 00:00 8 64 5.29 1.6 15 46 1013.1 3.8 12.7 22.2 29.4 76.5 61.7 208.9
06/05 23:30 8.2 64 5.36 1.8 19 43 1013.1 3.8 12.9 22.3 29.5 77.0 62.4 211.5
06/05 23:00 8.5 61 5.21 1.4 20 52 1013.1 3.8 12.6 22.0 28.9 75.2 60.3 204.2
06/05 22:30 8.7 59 5.1 1.1 19 46 1013.1 3.8 12.3 21.8 28.4 73.9 58.8 198.9
06/05 22:00 9.1 60 5.33 1.8 19 48 1013.1 3.6 12.8 22.0 29.1 75.8 61.3 207.8
06/05 21:30 9.4 63 5.7 2.7 19 48 1013.1 3.6 13.6 22.5 30.4 79.3 65.7 223.2
06/05 21:00 9.5 63 5.74 2.8 20 50 1013.1 3.6 13.7 22.5 30.5 79.6 66.1 224.7
06/05 20:30 9.1 71 6.3 4.1 24 61 1013.1 3.6 14.9 23.5 32.8 85.8 73.6 250.8
06/05 20:00 10.5 69 6.69 5.1 19 35 1013.1 3.4 15.7 23.8 33.8 88.3 77.2 263.9
06/05 19:30 10.5 74 7.18 6.1 19 63 1013.1 3.4 16.7 24.5 35.7 93.4 83.6 286.1
06/05 19:00 11 71 7.11 5.9 26 63 1013.1 3.4 16.5 24.3 35.2 92.1 82.1 281.1
06/05 18:30 11.5 76 7.85 7.4 28 57 1013.1 3.2 18.1 25.3 37.9 99.4 91.3 313.2
06/05 18:00 12.1 77 8.26 8.2 26 52 1013.1 2.4 18.9 25.8 39.3 103.0 96.0 329.9
06/05 17:30 14 72 8.68 9 17 43 1013.1 1.2 19.8 26.0 40.0 105.0 99.2 341.3
06/05 17:00 15.1 66 8.51 8.8 17 43 1013.1 1.2 19.3 25.4 38.8 101.8 95.6 328.8
06/05 16:30 15.1 66 8.51 8.8 19 46 1013.1 1.2 19.3 25.4 38.8 101.8 95.6 328.8
06/05 16:00 14.6 71 8.88 9.4 20 44 1013.1 1.2 20.1 26.1 40.5 106.4 101.1 347.9
06/05 15:30 14.3 73 8.97 9.5 19 50 1013.1 1.2 20.4 26.3 41.0 107.7 102.6 353.4
06/05 15:00 13.7 75 8.88 9.4 26 59 1013.1 1 20.2 26.4 41.0 107.6 102.2 351.9
06/05 14:30 13.6 81 9.53 10.4 11 22 1013.1 0.8 21.6 27.5 43.7 114.9 111.2 383.1
06/05 14:00 14.5 76 9.45 10.3 13 37 1013.1 0 21.4 27.1 42.9 112.7 108.8 375.0
06/05 13:30 14.7 74 9.32 10.1 11 33 1013.1 0 21.1 26.8 42.2 111.0 106.8 367.9
06/05 13:00 14.7 72 9.07 9.7 13 33 1013.1 0 20.5 26.4 41.2 108.3 103.4 356.2
06/05 12:30 14.7 72 9.07 9.7 6 17 1013.1 0 20.5 26.4 41.2 108.3 103.4 356.2
06/05 12:00 13.8 77 9.17 9.8 7 22 1013.1 0 20.8 26.8 42.1 110.6 106.0 365.1
06/05 09:30 13.8 72 8.58 8.8 9 22 1013.1 0 19.5 25.9 39.7 104.2 98.1 337.5
06/05 09:00 12.8 73 8.18 8.1 11 32 1013.1 0 18.7 25.5 38.6 101.2 94.1 323.3
06/05 08:30 12.7 71 7.9 7.6 11 24 1013.1 0.2 18.1 25.1 37.5 98.4 90.5 310.8

Last Refresh: 08-May-2026 12:10:21

Bureau of Meteorology